Time;durP1;ratioP1;P1;durP2;ratioP2;P2;SDS_P1;SDS_P2;PMS_P1;PMS_P2;Temp;Humidity;BMP_temperature;BMP_pressure;BME280_temperature;BME280_humidity;BME280_pressure;Samples;Min_cycle;Max_cycle;Signal;HPM_P1;HPM_P2
2021/11/02 00:00:46;;;;;;;4.50;2.10;;;;;;;;;;6245465;28;20142;-81
2021/11/02 00:03:46;;;;;;;1.75;1.13;;;8.80;99.90;;;;;;6248109;28;20028;-82
2021/11/02 00:06:47;;;;;;;2.47;1.55;;;;;;;;;;6251500;28;20028;-84
2021/11/02 00:09:50;;;;;;;2.05;1.23;;;8.60;99.90;;;;;;6270248;28;20553;-81
2021/11/02 00:12:51;;;;;;;1.95;1.40;;;8.40;99.90;;;;;;6261559;28;20060;-85
2021/11/02 00:15:54;;;;;;;3.40;1.55;;;8.50;99.90;;;;;;6255566;28;20029;-82
2021/11/02 00:19:02;;;;;;;3.58;1.50;;;8.80;99.90;;;;;;6252175;28;20036;-81
2021/11/02 00:22:25;;;;;;;2.10;1.50;;;;;;;;;;6225469;28;20129;-81
2021/11/02 00:25:25;;;;;;;1.92;1.25;;;8.60;99.90;;;;;;6258198;28;20535;-83
2021/11/02 00:28:26;;;;;;;2.92;1.70;;;;;;;;;;6257759;28;20430;-84
2021/11/02 00:31:28;;;;;;;2.33;1.38;;;;;;;;;;6246256;28;20037;-82
2021/11/02 00:34:29;;;;;;;5.00;1.65;;;;;;;;;;6278267;28;20457;-83
2021/11/02 00:37:34;;;;;;;4.25;1.23;;;8.60;99.90;;;;;;6268427;28;20371;-84
2021/11/02 00:40:36;;;;;;;1.67;1.17;;;;;;;;;;6228322;28;20068;-83
2021/11/02 00:43:38;;;;;;;0.85;0.85;;;;;;;;;;6265579;28;20395;-85
2021/11/02 00:46:39;;;;;;;1.73;0.95;;;;;;;;;;6270960;28;20347;-83
2021/11/02 00:49:40;;;;;;;2.17;1.08;;;;;;;;;;6267925;28;20505;-85
2021/11/02 00:52:41;;;;;;;3.72;1.38;;;8.50;99.90;;;;;;6263328;28;20021;-83
2021/11/02 00:55:42;;;;;;;2.35;0.95;;;;;;;;;;6220271;28;20036;-84
2021/11/02 00:58:43;;;;;;;2.08;1.30;;;8.40;99.90;;;;;;6270413;28;20086;-84
2021/11/02 01:01:43;;;;;;;2.47;1.38;;;8.70;99.90;;;;;;6243594;28;20041;-82
2021/11/02 01:04:45;;;;;;;2.70;1.35;;;8.50;99.90;;;;;;6244312;28;21189;-83
2021/11/02 01:07:47;;;;;;;1.20;1.10;;;8.70;99.90;;;;;;6244181;28;20035;-83
2021/11/02 01:10:48;;;;;;;1.05;0.93;;;8.60;99.90;;;;;;6270202;28;20037;-86
2021/11/02 01:13:49;;;;;;;1.58;1.20;;;8.80;99.90;;;;;;6243802;28;20994;-85
2021/11/02 01:16:49;;;;;;;4.38;1.33;;;8.70;99.90;;;;;;6250988;28;20040;-84
2021/11/02 01:19:50;;;;;;;3.55;1.38;;;;;;;;;;6233855;28;20025;-83
2021/11/02 01:22:51;;;;;;;2.72;1.40;;;8.60;99.90;;;;;;6261310;28;20037;-82
2021/11/02 01:25:52;;;;;;;1.58;1.00;;;9.10;99.90;;;;;;6243909;28;20032;-84
2021/11/02 01:28:53;;;;;;;3.15;1.23;;;;;;;;;;6246114;28;20104;-85
2021/11/02 01:31:54;;;;;;;1.80;1.05;;;8.60;99.90;;;;;;6244789;28;20112;-82
2021/11/02 01:34:55;;;;;;;3.10;1.30;;;;;;;;;;6234753;28;20041;-82
2021/11/02 01:37:55;;;;;;;1.52;1.15;;;8.50;99.90;;;;;;6247229;28;20430;-84
2021/11/02 01:40:56;;;;;;;2.08;1.20;;;8.50;99.90;;;;;;6226643;28;20042;-82
2021/11/02 01:43:57;;;;;;;1.75;1.00;;;8.60;99.90;;;;;;6242758;28;20114;-81
2021/11/02 01:46:58;;;;;;;2.70;1.27;;;8.60;99.90;;;;;;6242668;28;20562;-83
2021/11/02 01:49:58;;;;;;;1.88;1.13;;;8.70;99.90;;;;;;6226757;28;20029;-83
2021/11/02 01:52:59;;;;;;;2.95;2.00;;;8.70;99.90;;;;;;6255264;28;20032;-83
2021/11/02 01:56:01;;;;;;;3.63;1.70;;;8.50;99.90;;;;;;6263677;28;20538;-82
2021/11/02 01:59:03;;;;;;;4.38;1.65;;;8.50;99.90;;;;;;6221964;28;20025;-84
2021/11/02 02:02:17;;;;;;;2.33;1.88;;;8.70;99.90;;;;;;6259186;28;20037;-82
2021/11/02 02:05:31;;;;;;;4.30;2.05;;;8.70;99.90;;;;;;6245701;28;20028;-83
2021/11/02 02:08:39;;;;;;;2.58;1.73;;;8.80;99.90;;;;;;6245646;28;20029;-83
2021/11/02 02:11:47;;;;;;;3.78;1.70;;;8.80;99.90;;;;;;6258941;28;20033;-83
2021/11/02 02:14:54;;;;;;;12.00;2.72;;;8.70;99.90;;;;;;6242914;28;20092;-85
2021/11/02 02:18:23;;;;;;;4.13;1.77;;;8.70;99.90;;;;;;6259153;28;20107;-83
2021/11/02 02:21:49;;;;;;;5.03;2.25;;;9.10;99.90;;;;;;6250510;28;20141;-86
2021/11/02 02:24:53;;;;;;;5.38;1.90;;;8.70;99.90;;;;;;6259190;28;20039;-83
2021/11/02 02:28:10;;;;;;;1.85;1.60;;;8.80;99.90;;;;;;6243878;28;20032;-82
2021/11/02 02:31:12;;;;;;;3.67;2.30;;;8.70;99.90;;;;;;6242597;28;20033;-83
2021/11/02 02:34:13;;;;;;;4.72;2.05;;;8.80;99.90;;;;;;6253678;28;20380;-82
2021/11/02 02:37:14;;;;;;;5.97;2.30;;;8.80;99.90;;;;;;6249651;28;20033;-82
2021/11/02 02:40:15;;;;;;;6.45;1.70;;;8.80;99.90;;;;;;6232794;28;20036;-83
2021/11/02 02:43:15;;;;;;;4.22;1.70;;;8.70;99.90;;;;;;6249246;28;20478;-83
2021/11/02 02:46:16;;;;;;;5.60;1.83;;;8.90;99.90;;;;;;6248992;28;20025;-83
2021/11/02 02:49:16;;;;;;;4.63;2.10;;;8.90;99.90;;;;;;6227797;28;20029;-85
2021/11/02 02:52:17;;;;;;;3.40;1.73;;;9.90;99.90;;;;;;6245975;28;20055;-85
2021/11/02 02:55:18;;;;;;;7.85;2.22;;;8.80;99.90;;;;;;6232308;28;20029;-83
2021/11/02 02:58:19;;;;;;;5.95;2.08;;;8.60;99.90;;;;;;6235839;28;20029;-83
2021/11/02 03:01:19;;;;;;;5.32;2.20;;;8.70;99.90;;;;;;6218891;28;20029;-84
2021/11/02 03:04:24;;;;;;;3.50;1.70;;;8.80;99.90;;;;;;6234396;28;20060;-83
2021/11/02 03:07:25;;;;;;;3.72;1.63;;;8.80;99.90;;;;;;6226132;28;20113;-83
2021/11/02 03:10:26;;;;;;;4.45;1.90;;;9.20;99.90;;;;;;6258089;28;20029;-83
2021/11/02 03:13:26;;;;;;;3.08;1.45;;;9.00;99.90;;;;;;6265369;28;20471;-84
2021/11/02 03:17:05;;;;;;;3.95;1.48;;;9.00;99.90;;;;;;6227557;28;20112;-84
2021/11/02 03:50:01;;;;;;;2.72;1.50;;;8.70;99.90;;;;;;6260003;28;20483;-84
2021/11/02 03:56:45;;;;;;;6.20;2.20;;;8.20;99.90;;;;;;6244450;28;20041;-85
2021/11/02 04:42:43;;;;;;;4.63;2.47;;;7.20;99.90;;;;;;6260537;28;20026;-83
2021/11/02 05:58:06;;;;;;;9.88;2.95;;;7.10;99.90;;;;;;6252718;28;20506;-83
2021/11/02 06:10:57;;;;;;;4.60;2.55;;;7.10;99.90;;;;;;6250189;28;20051;-83
2021/11/02 06:28:10;;;;;;;5.97;2.40;;;7.50;99.90;;;;;;6242846;28;20026;-85
2021/11/02 06:31:18;;;;;;;9.30;4.35;;;7.50;99.90;;;;;;6272224;28;20459;-83
2021/11/02 06:37:37;;;;;;;11.90;6.25;;;7.40;99.90;;;;;;6250299;28;20455;-82
2021/11/02 06:48:09;;;;;;;4.47;3.20;;;7.60;99.90;;;;;;6241736;28;20030;-84
2021/11/02 06:51:24;;;;;;;5.38;2.80;;;;;;;;;;6232371;28;20456;-82
2021/11/02 07:21:00;;;;;;;3.50;2.50;;;7.60;99.90;;;;;;6235775;28;20391;-82
2021/11/02 07:24:07;;;;;;;7.30;3.20;;;7.70;99.90;;;;;;6247761;28;20024;-83
2021/11/02 08:45:14;;;;;;;2.33;2.10;;;8.60;99.90;;;;;;6226614;28;20623;-85
2021/11/02 08:48:18;;;;;;;4.03;1.98;;;10.20;99.90;;;;;;6226329;28;20087;-83
2021/11/02 08:51:19;;;;;;;1.77;1.50;;;9.00;99.90;;;;;;6224339;28;20037;-85
2021/11/02 08:54:19;;;;;;;2.17;1.83;;;9.10;99.90;;;;;;6225515;28;20043;-86
2021/11/02 08:57:20;;;;;;;1.08;1.05;;;9.20;99.90;;;;;;6226644;28;20029;-85
2021/11/02 09:00:21;;;;;;;0.88;0.88;;;9.20;99.90;;;;;;6232491;28;20128;-85
2021/11/02 09:03:23;;;;;;;1.27;0.90;;;9.10;99.90;;;;;;6249731;28;20070;-85
2021/11/02 09:06:24;;;;;;;3.00;2.10;;;;;;;;;;6240602;28;20083;-84
2021/11/02 09:09:25;;;;;;;0.90;0.82;;;;;;;;;;6267668;28;20040;-85
2021/11/02 09:12:29;;;;;;;0.80;0.80;;;9.80;99.90;;;;;;6259954;28;20022;-86
2021/11/02 09:15:31;;;;;;;0.52;0.52;;;9.80;99.90;;;;;;6243621;28;20112;-84
2021/11/02 09:18:32;;;;;;;0.68;0.68;;;;;;;;;;6271508;28;20050;-87
2021/11/02 09:21:34;;;;;;;1.23;0.85;;;;;;;;;;6264356;28;20098;-87
2021/11/02 09:24:35;;;;;;;0.60;0.60;;;;;;;;;;6264300;28;20025;-86
2021/11/02 09:27:39;;;;;;;0.93;0.93;;;10.20;99.90;;;;;;6244779;28;20044;-83
2021/11/02 09:30:40;;;;;;;0.40;0.40;;;9.90;99.90;;;;;;6259529;28;20086;-85
2021/11/02 09:33:41;;;;;;;0.38;0.38;;;;;;;;;;6229840;28;20033;-85
2021/11/02 09:36:51;;;;;;;0.40;0.40;;;9.90;99.90;;;;;;6259724;28;20021;-85
2021/11/02 09:39:52;;;;;;;0.73;0.70;;;10.10;99.90;;;;;;6244097;28;20036;-88
2021/11/02 09:42:54;;;;;;;0.50;0.50;;;10.10;99.90;;;;;;6233451;28;20042;-89
2021/11/02 09:46:32;;;;;;;1.10;0.90;;;9.90;99.90;;;;;;6268422;28;20064;-89
2021/11/02 09:49:54;;;;;;;0.60;0.60;;;10.20;99.90;;;;;;6272090;28;20037;-89
2021/11/02 09:53:26;;;;;;;1.13;0.63;;;10.60;99.90;;;;;;6252284;28;20025;-89
2021/11/02 09:56:41;;;;;;;1.02;0.98;;;10.90;99.90;;;;;;6260969;28;20029;-88
2021/11/02 09:59:52;;;;;;;1.00;0.63;;;;;;;;;;6258407;28;20033;-90
2021/11/02 10:03:46;;;;;;;0.90;0.90;;;10.20;99.90;;;;;;6264808;28;20056;-87
2021/11/02 10:06:53;;;;;;;1.50;1.08;;;10.90;99.90;;;;;;6229041;28;20522;-88
2021/11/02 10:09:59;;;;;;;1.27;1.17;;;11.80;99.90;;;;;;6269610;28;20039;-87
2021/11/02 10:13:03;;;;;;;2.55;0.85;;;12.60;99.90;;;;;;6260101;28;20032;-88
2021/11/02 10:16:31;;;;;;;0.77;0.77;;;13.40;99.90;;;;;;6257694;28;20030;-89
2021/11/02 10:19:39;;;;;;;1.25;1.10;;;;;;;;;;6235281;28;20033;-87
2021/11/02 10:22:57;;;;;;;0.85;0.85;;;13.50;99.90;;;;;;6273610;28;20091;-88
2021/11/02 10:26:16;;;;;;;1.10;1.10;;;14.30;99.90;;;;;;6268045;28;20425;-89
2021/11/02 10:30:01;;;;;;;1.25;0.85;;;14.30;99.90;;;;;;6269679;28;20021;-88
2021/11/02 10:33:31;;;;;;;1.90;1.02;;;14.60;99.90;;;;;;6247388;28;20090;-87
2021/11/02 10:36:32;;;;;;;0.70;0.70;;;14.70;99.90;;;;;;6234270;28;20474;-89
2021/11/02 10:39:49;;;;;;;1.40;1.30;;;14.90;99.70;;;;;;6280237;28;20027;-90
2021/11/02 10:43:10;;;;;;;1.63;0.93;;;14.90;99.90;;;;;;6262116;28;20037;-90
2021/11/02 10:46:13;;;;;;;1.23;1.15;;;14.50;99.90;;;;;;6266521;28;20123;-86
2021/11/02 10:49:27;;;;;;;8.27;2.30;;;14.60;99.90;;;;;;6230726;28;20106;-82
2021/11/02 10:52:28;;;;;;;14.77;4.07;;;15.10;99.90;;;;;;6249749;28;20029;-81
2021/11/02 10:55:50;;;;;;;3.63;1.13;;;15.20;99.90;;;;;;6249734;28;20075;-84
2021/11/02 10:58:53;;;;;;;1.50;1.20;;;15.20;99.90;;;;;;6250003;28;20028;-85
2021/11/02 11:01:55;;;;;;;1.23;1.08;;;14.00;99.90;;;;;;6249438;28;20291;-85
2021/11/02 11:04:56;;;;;;;2.65;1.15;;;14.50;99.90;;;;;;6232752;28;20036;-83
2021/11/02 11:07:58;;;;;;;0.90;0.90;;;15.00;99.90;;;;;;6258792;28;20025;-85
2021/11/02 11:10:59;;;;;;;1.05;1.05;;;15.10;99.90;;;;;;6247879;28;20041;-89
2021/11/02 11:14:08;;;;;;;0.82;0.82;;;15.10;99.90;;;;;;6230117;28;20036;-85
2021/11/02 11:17:19;;;;;;;1.17;1.10;;;;;;;;;;6228049;28;20029;-85
2021/11/02 11:20:21;;;;;;;1.10;1.00;;;;;;;;;;6249359;28;20403;-85
2021/11/02 11:23:22;;;;;;;1.45;1.05;;;13.00;99.90;;;;;;6261769;28;20495;-90
2021/11/02 11:26:26;;;;;;;1.33;0.82;;;12.30;99.90;;;;;;6232360;28;20029;-90
2021/11/02 11:29:30;;;;;;;1.67;1.13;;;14.40;99.90;;;;;;6248295;28;20025;-89
2021/11/02 11:32:34;;;;;;;0.95;0.95;;;11.60;99.90;;;;;;6234810;28;20032;-88
2021/11/02 11:35:35;;;;;;;1.73;1.35;;;11.10;99.90;;;;;;6248961;28;20374;-89
2021/11/02 11:38:38;;;;;;;1.02;0.68;;;10.70;99.90;;;;;;6231915;28;20030;-87
2021/11/02 11:41:39;;;;;;;3.58;1.73;;;;;;;;;;6252548;28;20093;-88
2021/11/02 11:44:42;;;;;;;1.33;0.90;;;10.10;99.90;;;;;;6251077;28;20493;-89
2021/11/02 11:47:44;;;;;;;0.93;0.80;;;;;;;;;;6267340;28;20030;-87
2021/11/02 11:50:44;;;;;;;1.92;1.08;;;9.90;99.90;;;;;;6249040;28;20029;-85
2021/11/02 11:53:45;;;;;;;0.80;0.80;;;9.60;99.90;;;;;;6234816;28;20029;-86
2021/11/02 11:56:46;;;;;;;4.55;2.83;;;;;;;;;;6224022;28;20075;-86
2021/11/02 11:59:47;;;;;;;25.73;13.88;;;;;;;;;;6260745;28;20049;-86
2021/11/02 12:03:06;;;;;;;21.52;13.25;;;9.80;99.90;;;;;;6262449;28;20120;-90
2021/11/02 12:06:16;;;;;;;5.30;4.40;;;8.90;99.90;;;;;;6226440;28;20037;-88
2021/11/02 12:09:21;;;;;;;6.38;4.72;;;8.70;99.90;;;;;;6273289;28;20029;-86
2021/11/02 12:12:23;;;;;;;18.02;15.60;;;;;;;;;;6240568;28;20031;-87
2021/11/02 12:15:24;;;;;;;5.18;2.92;;;;;;;;;;6229160;28;20022;-86
2021/11/02 12:18:29;;;;;;;3.03;2.47;;;9.00;99.90;;;;;;6283663;28;20025;-84
2021/11/02 12:21:31;;;;;;;2.58;2.22;;;9.70;99.90;;;;;;6252499;28;20129;-86
2021/11/02 12:24:36;;;;;;;3.08;2.78;;;9.60;99.90;;;;;;6239111;28;20069;-87
2021/11/02 12:27:41;;;;;;;2.15;1.98;;;9.90;99.90;;;;;;6235417;28;20459;-87
2021/11/02 12:30:42;;;;;;;3.20;2.88;;;;;;;;;;6217614;28;20033;-89
2021/11/02 12:33:48;;;;;;;2.97;2.67;;;10.90;99.90;;;;;;6251020;28;20084;-88
2021/11/02 12:36:49;;;;;;;5.07;3.50;;;11.30;99.90;;;;;;6256637;28;20043;-88
2021/11/02 12:39:50;;;;;;;3.42;2.42;;;;;;;;;;6246960;28;20379;-88
2021/11/02 12:42:51;;;;;;;4.88;3.53;;;;;;;;;;6277439;28;20051;-89
2021/11/02 12:45:53;;;;;;;11.02;7.57;;;11.40;99.90;;;;;;6238901;28;20051;-89
2021/11/02 12:48:54;;;;;;;7.13;5.95;;;;;;;;;;6240346;28;20041;-89
2021/11/02 12:52:10;;;;;;;5.75;2.38;;;11.10;99.90;;;;;;6256557;28;20383;-89
2021/11/02 12:55:16;;;;;;;3.10;2.80;;;11.20;99.90;;;;;;6253700;28;20029;-87
2021/11/02 12:58:18;;;;;;;4.05;3.28;;;11.30;99.90;;;;;;6244605;28;20033;-90
2021/11/02 13:01:35;;;;;;;1.70;1.60;;;11.10;99.90;;;;;;6227809;28;20036;-90
2021/11/02 13:04:36;;;;;;;1.65;1.55;;;11.60;99.90;;;;;;6240436;28;20040;-90
2021/11/02 13:07:38;;;;;;;2.80;1.52;;;11.70;99.90;;;;;;6237839;28;20379;-87
2021/11/02 13:10:40;;;;;;;1.75;1.60;;;11.80;99.90;;;;;;6256955;28;20057;-89
2021/11/02 13:14:07;;;;;;;2.15;1.80;;;11.70;99.90;;;;;;6227225;28;20074;-87
2021/11/02 13:17:10;;;;;;;1.20;1.10;;;11.50;99.90;;;;;;6258187;28;20079;-87
2021/11/02 13:20:35;;;;;;;3.92;2.17;;;11.20;99.90;;;;;;6255861;28;20029;-88
2021/11/02 13:23:39;;;;;;;2.05;1.90;;;10.90;99.90;;;;;;6237598;28;20028;-85
2021/11/02 13:26:43;;;;;;;2.40;2.20;;;10.80;99.90;;;;;;6233520;28;20033;-88
2021/11/02 13:29:47;;;;;;;2.78;1.10;;;;;;;;;;6240779;28;20064;-89
2021/11/02 13:33:08;;;;;;;2.88;1.38;;;10.70;99.90;;;;;;6256972;28;20022;-85
2021/11/02 13:36:12;;;;;;;1.40;1.30;;;10.90;99.90;;;;;;6260107;28;20029;-89
2021/11/02 13:39:14;;;;;;;1.75;1.30;;;11.70;99.90;;;;;;6248552;28;20063;-90
2021/11/02 13:42:15;;;;;;;0.93;0.90;;;;;;;;;;6236069;28;20041;-87
2021/11/02 13:45:19;;;;;;;2.47;1.85;;;11.50;99.90;;;;;;6252096;28;20141;-88
2021/11/02 13:48:23;;;;;;;1.10;1.00;;;;;;;;;;6252655;28;20502;-88
2021/11/02 13:51:24;;;;;;;2.67;1.30;;;11.60;99.90;;;;;;6244192;28;20410;-88
2021/11/02 13:54:26;;;;;;;3.83;3.22;;;;;;;;;;6247180;28;20075;-89
2021/11/02 13:57:27;;;;;;;2.38;1.75;;;;;;;;;;6259701;28;20021;-87
2021/11/02 14:00:27;;;;;;;1.40;1.35;;;11.30;99.90;;;;;;6257070;28;20115;-88
2021/11/02 14:03:34;;;;;;;3.03;2.03;;;11.30;99.90;;;;;;6238291;28;20411;-89
2021/11/02 14:06:37;;;;;;;7.78;4.72;;;11.00;99.90;;;;;;6234426;28;20025;-88
2021/11/02 14:09:45;;;;;;;3.42;2.42;;;10.70;99.90;;;;;;6228091;28;20052;-89
2021/11/02 14:12:54;;;;;;;7.03;4.90;;;10.50;99.90;;;;;;6233323;28;20025;-89
2021/11/02 14:16:00;;;;;;;2.53;2.00;;;10.40;99.90;;;;;;6245370;28;20025;-89
2021/11/02 14:19:01;;;;;;;3.65;1.70;;;10.20;99.90;;;;;;6228582;28;20029;-88
2021/11/02 14:22:03;;;;;;;2.35;2.00;;;;;;;;;;6223181;28;20151;-89
2021/11/02 14:25:17;;;;;;;2.83;1.83;;;10.10;99.90;;;;;;6254088;28;20048;-88
2021/11/02 14:28:30;;;;;;;2.45;1.60;;;10.10;99.90;;;;;;6239093;28;20411;-88
2021/11/02 14:31:52;;;;;;;6.28;3.85;;;9.90;99.90;;;;;;6232625;28;20387;-87
2021/11/02 14:34:53;;;;;;;4.22;2.03;;;;;;;;;;6248557;28;20033;-88
2021/11/02 14:37:54;;;;;;;1.88;1.52;;;;;;;;;;6248087;28;20521;-87
2021/11/02 14:40:59;;;;;;;3.75;2.42;;;9.50;99.90;;;;;;6255388;28;20033;-87
2021/11/02 14:44:17;;;;;;;2.88;2.10;;;9.30;99.90;;;;;;6232809;28;20055;-87
2021/11/02 14:47:35;;;;;;;5.80;3.42;;;9.30;99.90;;;;;;6265311;28;20200;-87
2021/11/02 14:50:36;;;;;;;3.78;2.75;;;;;;;;;;6258630;28;20025;-87
2021/11/02 14:53:37;;;;;;;3.50;2.90;;;;;;;;;;6247851;28;20021;-85
2021/11/02 14:56:38;;;;;;;1.70;1.60;;;;;;;;;;6265947;28;20479;-85
2021/11/02 14:59:54;;;;;;;16.48;13.95;;;9.60;99.90;;;;;;6266116;28;20029;-85
2021/11/02 15:02:55;;;;;;;5.20;4.70;;;9.50;99.90;;;;;;6244677;28;20415;-85
2021/11/02 15:06:11;;;;;;;10.10;6.97;;;9.30;99.90;;;;;;6225698;28;20060;-81
2021/11/02 15:09:12;;;;;;;3.17;2.30;;;9.10;99.90;;;;;;6241789;28;20049;-82
2021/11/02 15:12:13;;;;;;;1.90;1.77;;;9.40;99.90;;;;;;6268898;28;20033;-88
2021/11/02 15:15:14;;;;;;;4.28;2.83;;;;;;;;;;6230138;28;20491;-86
2021/11/02 15:18:14;;;;;;;3.95;2.65;;;9.20;99.90;;;;;;6251901;28;20025;-84
2021/11/02 15:21:22;;;;;;;2.00;1.85;;;;;;;;;;6264958;28;20044;-84
2021/11/02 15:24:29;;;;;;;2.03;1.83;;;9.10;99.90;;;;;;6268273;28;20021;-84
2021/11/02 15:27:34;;;;;;;1.95;1.80;;;9.20;99.90;;;;;;6223419;28;20467;-86
2021/11/02 15:30:37;;;;;;;6.30;4.88;;;;;;;;;;6243281;28;20033;-85
2021/11/02 15:33:41;;;;;;;7.88;5.22;;;9.10;99.90;;;;;;6270143;28;20348;-84
2021/11/02 15:36:43;;;;;;;13.52;9.30;;;9.20;99.90;;;;;;6253473;28;20033;-84
2021/11/02 15:39:46;;;;;;;18.95;9.65;;;9.30;99.90;;;;;;6216139;28;20034;-84
2021/11/02 15:42:47;;;;;;;4.65;2.58;;;;;;;;;;6229093;28;20129;-83
2021/11/02 15:45:48;;;;;;;4.20;2.70;;;8.90;99.90;;;;;;6247477;28;20108;-84
2021/11/02 15:48:53;;;;;;;6.35;4.43;;;8.70;99.90;;;;;;6229113;28;20467;-84
2021/11/02 15:51:56;;;;;;;5.45;4.20;;;8.90;99.90;;;;;;6264553;28;20099;-83
2021/11/02 15:55:05;;;;;;;3.30;2.80;;;8.70;99.90;;;;;;6269445;28;20056;-83
2021/11/02 15:58:08;;;;;;;5.40;3.60;;;8.60;99.90;;;;;;6243296;28;20033;-83
2021/11/02 16:01:09;;;;;;;2.92;2.38;;;;;;;;;;6229777;28;20183;-83
2021/11/02 16:04:14;;;;;;;4.28;2.53;;;8.30;99.90;;;;;;6245546;28;20490;-83
2021/11/02 16:07:15;;;;;;;3.72;2.72;;;;;;;;;;6245171;28;20029;-84
2021/11/02 16:10:16;;;;;;;2.97;2.42;;;;;;;;;;6245193;28;20098;-84
2021/11/02 16:13:16;;;;;;;3.47;2.67;;;8.20;99.90;;;;;;6245346;28;20029;-84
2021/11/02 16:16:17;;;;;;;4.50;3.00;;;8.10;99.90;;;;;;6261111;28;20033;-84
2021/11/02 16:19:18;;;;;;;3.72;3.25;;;8.10;99.90;;;;;;6235878;28;20064;-85
2021/11/02 16:22:20;;;;;;;2.65;2.45;;;7.90;99.90;;;;;;6218001;28;20049;-83
2021/11/02 16:25:21;;;;;;;2.65;2.45;;;;;;;;;;6259593;28;20040;-86
2021/11/02 16:28:24;;;;;;;2.45;2.15;;;7.90;99.90;;;;;;6252491;28;20028;-84
2021/11/02 16:31:25;;;;;;;4.15;2.60;;;7.50;99.90;;;;;;6233888;28;20538;-87
2021/11/02 16:34:26;;;;;;;5.07;3.90;;;;;;;;;;6233373;28;20076;-81
2021/11/02 16:37:34;;;;;;;6.80;3.40;;;7.90;99.90;;;;;;6261036;28;20111;-82
2021/11/02 16:40:35;;;;;;;9.48;5.65;;;8.30;99.90;;;;;;6283267;28;20122;-85
2021/11/02 16:43:38;;;;;;;5.00;4.05;;;8.40;99.90;;;;;;6245968;28;20399;-83
2021/11/02 16:46:39;;;;;;;5.10;3.55;;;;;;;;;;6247379;28;20361;-87
2021/11/02 16:49:41;;;;;;;4.60;3.40;;;;;;;;;;6257453;28;20040;-87
2021/11/02 16:52:42;;;;;;;3.35;2.40;;;;;;;;;;6257469;28;20103;-85
2021/11/02 16:55:45;;;;;;;3.15;2.85;;;7.90;99.90;;;;;;6250988;28;20033;-86
2021/11/02 16:58:47;;;;;;;3.28;2.58;;;7.80;99.90;;;;;;6236976;28;20029;-87
2021/11/02 17:01:49;;;;;;;3.83;3.03;;;;;;;;;;6253308;28;20043;-89
2021/11/02 17:05:02;;;;;;;2.67;2.40;;;7.60;99.90;;;;;;6257416;28;20029;-86
2021/11/02 17:08:03;;;;;;;3.38;2.70;;;;;;;;;;6265597;28;20324;-86
2021/11/02 17:11:04;;;;;;;4.90;3.38;;;;;;;;;;6277873;28;20128;-85
2021/11/02 17:14:04;;;;;;;6.07;2.78;;;7.40;99.90;;;;;;6243646;28;20018;-85
2021/11/02 17:17:06;;;;;;;3.13;2.50;;;;;;;;;;6233432;28;20040;-87
2021/11/02 17:20:09;;;;;;;3.90;2.17;;;7.30;99.90;;;;;;6250541;28;20709;-85
2021/11/02 17:23:10;;;;;;;4.05;2.97;;;7.20;99.90;;;;;;6244354;28;20044;-83
2021/11/02 17:26:12;;;;;;;3.78;2.92;;;7.80;99.90;;;;;;6245475;28;20029;-86
2021/11/02 17:29:13;;;;;;;6.57;3.67;;;;;;;;;;6219709;28;20064;-84
2021/11/02 17:32:14;;;;;;;7.70;6.88;;;7.20;99.90;;;;;;6267314;28;20104;-85
2021/11/02 17:35:16;;;;;;;4.50;3.72;;;7.10;99.90;;;;;;6256015;28;20052;-83
2021/11/02 17:38:17;;;;;;;4.30;3.30;;;;;;;;;;6214861;28;20039;-84
2021/11/02 17:41:18;;;;;;;3.92;3.00;;;;;;;;;;6273205;28;20066;-88
2021/11/02 17:44:19;;;;;;;5.45;3.47;;;;;;;;;;6258371;28;20049;-86
2021/11/02 17:47:20;;;;;;;3.72;3.17;;;;;;;;;;6250852;28;20025;-86
2021/11/02 17:50:30;;;;;;;4.40;3.75;;;6.70;99.90;;;;;;6249008;28;20028;-89
2021/11/02 17:53:31;;;;;;;5.07;4.18;;;;;;;;;;6250013;28;20596;-87
2021/11/02 17:56:32;;;;;;;5.13;3.13;;;;;;;;;;6246080;28;20044;-89
2021/11/02 17:59:33;;;;;;;6.95;3.45;;;6.70;99.90;;;;;;6260938;28;20033;-90
2021/11/02 18:02:34;;;;;;;4.25;3.05;;;;;;;;;;6228531;28;20124;-85
2021/11/02 18:05:35;;;;;;;6.05;2.78;;;6.80;99.90;;;;;;6274229;28;20026;-87
2021/11/02 18:08:36;;;;;;;5.47;3.42;;;;;;;;;;6251004;28;20102;-85
2021/11/02 18:11:37;;;;;;;11.13;6.53;;;;;;;;;;6242746;28;20033;-81
2021/11/02 18:14:38;;;;;;;6.28;5.55;;;6.70;99.90;;;;;;6245408;28;20037;-81
2021/11/02 18:17:45;;;;;;;6.85;5.47;;;6.40;99.90;;;;;;6252379;28;20069;-79
2021/11/02 18:20:47;;;;;;;9.07;3.95;;;;;;;;;;6249060;28;20141;-84
2021/11/02 18:23:48;;;;;;;4.60;3.85;;;6.60;99.90;;;;;;6258520;28;20108;-84
2021/11/02 18:26:49;;;;;;;3.83;3.40;;;;;;;;;;6230774;28;20034;-87
2021/11/02 18:29:50;;;;;;;5.90;4.10;;;;;;;;;;6250105;28;20083;-86
2021/11/02 18:32:51;;;;;;;4.72;3.47;;;;;;;;;;6280578;28;20028;-83
2021/11/02 18:35:53;;;;;;;5.00;3.08;;;6.30;99.90;;;;;;6259212;28;20029;-82
2021/11/02 18:38:54;;;;;;;4.20;3.63;;;;;;;;;;6242116;28;20032;-82
2021/11/02 18:41:55;;;;;;;7.13;4.80;;;;;;;;;;6258449;28;20045;-82
2021/11/02 18:44:55;;;;;;;13.52;8.50;;;6.40;99.90;;;;;;6243903;28;20050;-83
2021/11/02 18:47:56;;;;;;;5.57;4.00;;;6.30;99.90;;;;;;6242756;28;20064;-80
2021/11/02 18:50:57;;;;;;;5.80;3.40;;;;;;;;;;6244884;28;20025;-83
2021/11/02 18:53:58;;;;;;;5.72;4.13;;;6.30;99.90;;;;;;6263509;28;20034;-83
2021/11/02 18:56:59;;;;;;;6.15;4.30;;;;;;;;;;6257735;28;20101;-80
2021/11/02 19:00:00;;;;;;;5.47;3.78;;;;;;;;;;6280398;28;20029;-83
2021/11/02 19:03:02;;;;;;;7.60;4.55;;;6.00;99.90;;;;;;6246747;28;20038;-82
2021/11/02 19:06:03;;;;;;;8.85;5.32;;;;;;;;;;6244866;28;20025;-83
2021/11/02 19:09:04;;;;;;;5.10;3.78;;;5.70;99.90;;;;;;6262709;28;20025;-83
2021/11/02 19:12:05;;;;;;;6.03;4.20;;;5.80;99.90;;;;;;6245936;28;20029;-82
2021/11/02 19:15:06;;;;;;;6.25;4.30;;;6.00;99.90;;;;;;6264899;28;20091;-84
2021/11/02 19:18:07;;;;;;;4.63;3.80;;;5.80;99.90;;;;;;6242417;28;20055;-83
2021/11/02 19:21:08;;;;;;;5.93;3.38;;;;;;;;;;6258885;28;20049;-83
2021/11/02 19:24:09;;;;;;;6.00;4.10;;;6.10;99.90;;;;;;6248906;28;20083;-87
2021/11/02 19:27:10;;;;;;;7.38;4.28;;;;;;;;;;6233136;28;20044;-84
2021/11/02 19:30:11;;;;;;;6.93;3.50;;;5.60;99.90;;;;;;6246661;28;20479;-84
2021/11/02 19:33:12;;;;;;;4.43;3.30;;;;;;;;;;6229873;28;20036;-82
2021/11/02 19:36:13;;;;;;;6.47;4.38;;;;;;;;;;6262512;28;20395;-86
2021/11/02 19:39:14;;;;;;;6.07;4.30;;;;;;;;;;6259330;28;20036;-82
2021/11/02 19:42:14;;;;;;;6.97;4.10;;;5.50;99.90;;;;;;6246145;28;20051;-82
2021/11/02 19:45:15;;;;;;;6.18;3.88;;;;;;;;;;6246038;28;20049;-83
2021/11/02 19:48:16;;;;;;;8.38;4.80;;;5.70;99.90;;;;;;6245575;28;20076;-85
2021/11/02 19:51:17;;;;;;;8.05;7.00;;;;;;;;;;6228735;28;20128;-83
2021/11/02 19:54:18;;;;;;;4.20;3.38;;;;;;;;;;6261278;28;20022;-84
2021/11/02 19:57:19;;;;;;;6.22;3.65;;;5.50;99.90;;;;;;6242561;28;20033;-83
2021/11/02 20:00:22;;;;;;;8.07;4.90;;;5.80;99.90;;;;;;6261765;28;20034;-83
2021/11/02 20:03:23;;;;;;;34.55;18.00;;;;;;;;;;6248093;28;20030;-84
2021/11/02 20:06:28;;;;;;;21.50;11.27;;;5.90;99.90;;;;;;6252317;28;20026;-86
2021/11/02 20:09:32;;;;;;;4.78;3.08;;;5.40;99.90;;;;;;6237910;28;20027;-86
2021/11/02 20:12:35;;;;;;;6.03;4.13;;;5.60;99.90;;;;;;6228733;28;20045;-87
2021/11/02 20:15:37;;;;;;;8.38;4.10;;;5.30;99.90;;;;;;6219188;28;20119;-86
2021/11/02 20:18:41;;;;;;;5.03;4.50;;;5.30;99.90;;;;;;6228305;28;20044;-86
2021/11/02 20:21:41;;;;;;;7.85;4.00;;;5.50;99.90;;;;;;6229970;28;20051;-88
2021/11/02 20:24:42;;;;;;;7.68;3.38;;;;;;;;;;6236565;28;20030;-88
2021/11/02 20:27:45;;;;;;;5.78;2.90;;;5.20;99.90;;;;;;6259167;28;20119;-86
2021/11/02 20:30:47;;;;;;;3.55;3.08;;;5.50;99.90;;;;;;6209183;28;20026;-86
2021/11/02 20:33:51;;;;;;;5.60;3.13;;;;;;;;;;6253116;28;20036;-87
2021/11/02 20:37:26;;;;;;;3.45;2.90;;;5.20;99.90;;;;;;6249239;28;20616;-86
2021/11/02 20:40:41;;;;;;;3.90;3.13;;;5.30;99.90;;;;;;6200816;28;20046;-86
2021/11/02 20:43:42;;;;;;;8.68;4.05;;;5.10;99.90;;;;;;6200299;28;20124;-87
2021/11/02 20:46:45;;;;;;;4.00;3.60;;;5.10;99.90;;;;;;6184092;28;20120;-86
2021/11/02 20:49:55;;;;;;;4.90;3.58;;;5.00;99.90;;;;;;6184589;28;20638;-88
2021/11/02 20:52:55;;;;;;;5.72;4.18;;;5.30;99.90;;;;;;6178963;28;20037;-88
2021/11/02 20:55:57;;;;;;;4.75;3.55;;;;;;;;;;6198329;28;20431;-87
2021/11/02 20:58:59;;;;;;;3.60;3.00;;;5.00;99.90;;;;;;6199413;28;20514;-88
2021/11/02 21:02:00;;;;;;;4.32;2.90;;;;;;;;;;6183445;28;20053;-86
2021/11/02 21:05:01;;;;;;;5.15;3.95;;;4.90;99.90;;;;;;6196403;28;20033;-86
2021/11/02 21:08:13;;;;;;;7.00;3.50;;;5.10;99.90;;;;;;6197412;28;20105;-86
2021/11/02 21:11:14;;;;;;;10.05;8.90;;;;;;;;;;6199054;28;20041;-86
2021/11/02 21:14:15;;;;;;;10.27;9.25;;;;;;;;;;6199960;28;20033;-85
2021/11/02 21:17:16;;;;;;;9.38;8.45;;;;;;;;;;6246736;28;20049;-85
2021/11/02 21:20:19;;;;;;;5.97;5.38;;;5.00;99.90;;;;;;6241748;28;20430;-82
2021/11/02 21:23:20;;;;;;;5.18;3.83;;;;;;;;;;6224953;28;20115;-84
2021/11/02 21:26:20;;;;;;;4.82;3.47;;;5.20;99.90;;;;;;6258927;28;20083;-83
2021/11/02 21:29:21;;;;;;;5.45;3.17;;;;;;;;;;6242135;28;20033;-84
2021/11/02 21:32:22;;;;;;;4.00;2.90;;;;;;;;;;6242204;28;20034;-84
2021/11/02 21:35:23;;;;;;;5.93;2.70;;;5.00;99.90;;;;;;6245347;28;20128;-84